Time;durP1;ratioP1;P1;durP2;ratioP2;P2;SDS_P1;SDS_P2;PMS_P1;PMS_P2;Temp;Humidity;BMP_temperature;BMP_pressure;BME280_temperature;BME280_humidity;BME280_pressure;Samples;Min_cycle;Max_cycle;Signal;HPM_P1;HPM_P2
2022/08/10 00:02:30;;;;;;;2.85;1.35;;;28.10;50.10;;;;;;6369232;22;20505;-78
2022/08/10 00:04:55;;;;;;;3.53;1.92;;;28.10;50.20;;;;;;6368702;22;20002;-79
2022/08/10 00:07:21;;;;;;;4.63;1.40;;;28.00;49.90;;;;;;6369932;22;20078;-79
2022/08/10 00:09:47;;;;;;;3.42;1.80;;;28.00;50.20;;;;;;6369921;22;19998;-79
2022/08/10 00:12:13;;;;;;;3.47;1.45;;;27.90;50.80;;;;;;6369837;22;20002;-80
2022/08/10 00:14:38;;;;;;;3.13;1.48;;;27.80;50.50;;;;;;6341456;22;20010;-80
2022/08/10 00:17:04;;;;;;;2.53;1.40;;;27.80;50.60;;;;;;6369527;22;20074;-81
2022/08/10 00:19:30;;;;;;;3.13;1.45;;;27.80;50.70;;;;;;6369712;22;19998;-81
2022/08/10 00:21:55;;;;;;;3.25;1.33;;;27.80;51.00;;;;;;6370316;22;19995;-80
2022/08/10 00:24:21;;;;;;;2.90;1.30;;;27.80;50.80;;;;;;6369470;22;20401;-79
2022/08/10 00:26:47;;;;;;;2.10;1.25;;;27.80;50.80;;;;;;6369047;22;20005;-80
2022/08/10 00:29:12;;;;;;;2.35;1.30;;;27.70;51.30;;;;;;6368872;22;20002;-78
2022/08/10 00:31:38;;;;;;;3.15;1.23;;;27.70;50.90;;;;;;6368966;22;20085;-77
2022/08/10 00:34:04;;;;;;;4.90;1.50;;;27.80;51.00;;;;;;6369045;22;20005;-77
2022/08/10 00:36:29;;;;;;;2.90;1.40;;;27.80;51.00;;;;;;6368392;22;20005;-77
2022/08/10 00:38:55;;;;;;;5.32;1.60;;;27.80;51.00;;;;;;6368985;22;19998;-77
2022/08/10 00:41:21;;;;;;;3.55;1.70;;;27.80;50.80;;;;;;6369623;22;20024;-81
2022/08/10 00:43:46;;;;;;;1.60;1.48;;;27.90;50.80;;;;;;6369508;22;20006;-81
2022/08/10 00:46:12;;;;;;;1.63;1.23;;;27.90;50.70;;;;;;6369274;22;20328;-79
2022/08/10 00:48:38;;;;;;;2.42;1.40;;;27.80;50.60;;;;;;6369691;22;19999;-80
2022/08/10 00:51:04;;;;;;;3.33;1.60;;;27.90;50.70;;;;;;6369959;22;20033;-79
2022/08/10 00:53:30;;;;;;;3.03;1.77;;;27.80;50.70;;;;;;6370015;22;20017;-79
2022/08/10 00:55:56;;;;;;;3.05;1.42;;;27.80;50.40;;;;;;6369702;22;20048;-79
2022/08/10 00:58:21;;;;;;;4.88;1.80;;;27.80;50.50;;;;;;6369905;22;20113;-79
2022/08/10 01:00:47;;;;;;;1.92;1.20;;;27.90;50.80;;;;;;6369654;22;20069;-79
2022/08/10 01:03:14;;;;;;;3.47;1.50;;;27.80;50.50;;;;;;6369596;22;19998;-80
2022/08/10 01:05:50;;;;;;;2.78;1.55;;;27.80;50.40;;;;;;6368875;22;20012;-78
2022/08/10 01:08:35;;;;;;;4.18;1.35;;;27.80;50.00;;;;;;6341541;22;20002;-80
2022/08/10 01:11:19;;;;;;;6.38;1.52;;;27.80;49.60;;;;;;6369178;22;20030;-79
2022/08/10 01:14:14;;;;;;;4.00;1.92;;;27.70;49.80;;;;;;6369246;22;19999;-80
2022/08/10 01:17:09;;;;;;;1.45;1.13;;;27.70;49.60;;;;;;6366454;22;20314;-79
2022/08/10 01:19:58;;;;;;;3.53;1.65;;;27.60;49.60;;;;;;6368648;22;20060;-78
2022/08/10 01:22:29;;;;;;;2.55;1.30;;;27.70;49.60;;;;;;6324492;22;20005;-78
2022/08/10 01:25:09;;;;;;;2.65;1.55;;;27.60;49.70;;;;;;6340661;22;19994;-78
2022/08/10 01:27:44;;;;;;;5.43;1.83;;;27.60;49.70;;;;;;6368741;22;20068;-79
2022/08/10 01:30:19;;;;;;;1.67;1.02;;;27.60;49.70;;;;;;6368919;22;20008;-78
2022/08/10 01:32:46;;;;;;;3.10;1.30;;;27.60;49.70;;;;;;6368408;22;19998;-78
2022/08/10 01:35:45;;;;;;;2.03;1.42;;;27.60;49.80;;;;;;6368201;22;20033;-78
2022/08/10 01:38:18;;;;;;;1.65;1.30;;;27.60;49.80;;;;;;6368081;22;20332;-78
2022/08/10 01:40:48;;;;;;;2.25;1.20;;;27.60;49.70;;;;;;6368264;22;20003;-78
2022/08/10 01:43:18;;;;;;;1.65;1.38;;;27.60;49.90;;;;;;6368164;22;20321;-78
2022/08/10 01:45:48;;;;;;;2.13;1.17;;;27.60;50.00;;;;;;6368074;22;20426;-78
2022/08/10 01:48:32;;;;;;;;;;;27.60;49.80;;;;;;6368442;22;20220;-78
2022/08/10 01:51:22;;;;;;;2.85;1.40;;;27.60;49.50;;;;;;6368229;22;19905;-78
2022/08/10 01:53:54;;;;;;;5.00;1.40;;;27.50;49.40;;;;;;6340301;22;20006;-77
2022/08/10 01:56:22;;;;;;;5.82;1.40;;;27.50;49.40;;;;;;6368104;22;20010;-77
2022/08/10 01:58:52;;;;;;;1.90;1.35;;;27.50;49.50;;;;;;6368390;22;19995;-77
2022/08/10 02:01:22;;;;;;;6.72;1.60;;;27.50;49.60;;;;;;6368806;22;19998;-79
2022/08/10 02:03:50;;;;;;;2.13;1.25;;;27.40;48.70;;;;;;6368221;22;20012;-79
2022/08/10 02:06:18;;;;;;;2.25;1.50;;;27.20;49.20;;;;;;6368085;22;20003;-79
2022/08/10 02:08:47;;;;;;;3.22;1.52;;;27.00;49.40;;;;;;6368657;22;20001;-79
2022/08/10 02:11:14;;;;;;;7.10;1.67;;;26.90;49.40;;;;;;6369021;22;20437;-79
2022/08/10 02:13:42;;;;;;;4.47;1.55;;;26.70;49.50;;;;;;6369128;22;20030;-78
2022/08/10 02:16:09;;;;;;;3.72;1.55;;;26.60;49.70;;;;;;6368699;22;20436;-79
2022/08/10 02:18:35;;;;;;;1.63;1.30;;;26.70;49.80;;;;;;6368747;22;20017;-79
2022/08/10 02:21:05;;;;;;;4.78;1.58;;;26.70;49.60;;;;;;6341250;22;20002;-78
2022/08/10 02:23:34;;;;;;;4.38;1.63;;;26.80;49.70;;;;;;6368083;22;20024;-78
2022/08/10 02:26:02;;;;;;;2.17;1.40;;;26.90;49.70;;;;;;6367876;22;19995;-78
2022/08/10 02:28:31;;;;;;;3.50;1.50;;;26.90;49.40;;;;;;6368624;22;19999;-78
2022/08/10 02:31:07;;;;;;;2.65;1.50;;;27.00;49.30;;;;;;6340518;22;20448;-76
2022/08/10 02:33:34;;;;;;;6.63;1.35;;;27.00;49.20;;;;;;6340098;22;20006;-76
2022/08/10 02:36:04;;;;;;;2.22;1.33;;;27.00;48.00;;;;;;6338926;22;20324;-80
2022/08/10 02:38:37;;;;;;;2.10;1.40;;;26.90;48.50;;;;;;6368862;22;19998;-79
2022/08/10 02:41:13;;;;;;;3.47;1.60;;;26.80;48.50;;;;;;6368030;22;20069;-78
2022/08/10 02:43:52;;;;;;;1.30;1.10;;;26.80;48.80;;;;;;6367944;22;20022;-77
2022/08/10 02:46:43;;;;;;;2.97;1.23;;;26.80;48.80;;;;;;6367783;22;19994;-78
2022/08/10 02:49:16;;;;;;;2.47;1.60;;;26.90;49.00;;;;;;6369358;22;20002;-78
2022/08/10 02:51:48;;;;;;;3.08;1.25;;;26.90;48.90;;;;;;6370919;22;20022;-77
2022/08/10 02:54:20;;;;;;;1.73;1.20;;;27.00;49.00;;;;;;6370376;22;20005;-77
2022/08/10 02:56:55;;;;;;;3.55;1.52;;;26.90;48.70;;;;;;6370311;22;20073;-78
2022/08/10 02:59:31;;;;;;;3.13;1.13;;;26.90;48.50;;;;;;6370578;22;19998;-78
2022/08/10 03:02:02;;;;;;;3.90;1.52;;;27.00;48.70;;;;;;6370210;22;19998;-79
2022/08/10 03:04:42;;;;;;;3.40;1.38;;;27.00;48.40;;;;;;6343377;22;19998;-79
2022/08/10 03:07:18;;;;;;;2.95;1.50;;;27.00;48.20;;;;;;6370426;22;20002;-80
2022/08/10 03:09:46;;;;;;;1.23;1.00;;;27.00;47.80;;;;;;6370754;22;20077;-79
2022/08/10 03:12:14;;;;;;;1.75;0.95;;;27.00;47.60;;;;;;6370462;22;20371;-80
2022/08/10 03:14:41;;;;;;;2.35;1.60;;;27.00;47.40;;;;;;6343168;22;20003;-79
2022/08/10 03:17:09;;;;;;;3.67;1.50;;;27.00;47.30;;;;;;6370273;22;20002;-80
2022/08/10 03:19:37;;;;;;;4.82;1.40;;;27.00;47.50;;;;;;6371296;22;20002;-79
2022/08/10 03:22:04;;;;;;;2.67;1.30;;;26.90;47.30;;;;;;6370681;22;20425;-79
2022/08/10 03:24:32;;;;;;;5.25;1.27;;;27.00;47.40;;;;;;6370456;22;20413;-78
2022/08/10 03:26:58;;;;;;;1.40;0.93;;;26.90;46.10;;;;;;6370427;22;20029;-78
2022/08/10 03:29:25;;;;;;;1.92;1.27;;;26.90;47.00;;;;;;6342505;22;20415;-78
2022/08/10 03:31:51;;;;;;;5.00;1.55;;;26.80;47.50;;;;;;6370444;22;20010;-78
2022/08/10 03:34:18;;;;;;;1.80;1.30;;;26.90;47.00;;;;;;6370374;22;20025;-78
2022/08/10 03:36:44;;;;;;;1.67;1.10;;;26.80;47.00;;;;;;6369648;22;20063;-78
2022/08/10 03:39:10;;;;;;;3.38;1.27;;;26.90;47.00;;;;;;6370599;22;20006;-78
2022/08/10 03:41:41;;;;;;;3.13;1.40;;;26.80;47.20;;;;;;6371396;22;20005;-78
2022/08/10 03:44:07;;;;;;;;;;;26.80;47.20;;;;;;6371416;22;19995;-78
2022/08/10 03:46:36;;;;;;;1.38;1.10;;;26.80;46.80;;;;;;6369315;22;19902;-78
2022/08/10 03:49:04;;;;;;;2.08;1.20;;;26.80;47.00;;;;;;6370360;22;20059;-79
2022/08/10 03:51:32;;;;;;;4.25;1.27;;;26.70;46.80;;;;;;6370036;22;20002;-78
2022/08/10 03:53:58;;;;;;;2.70;1.20;;;26.70;46.90;;;;;;6370023;22;20297;-78
2022/08/10 03:56:24;;;;;;;2.35;1.17;;;26.70;47.20;;;;;;6369655;22;20002;-78
2022/08/10 03:58:50;;;;;;;2.17;1.30;;;26.70;47.10;;;;;;6342086;22;20033;-78
2022/08/10 04:01:17;;;;;;;4.05;1.40;;;26.80;47.10;;;;;;6342367;22;20003;-78
2022/08/10 04:03:43;;;;;;;1.65;1.10;;;26.80;47.00;;;;;;6369481;22;20473;-78
2022/08/10 04:06:10;;;;;;;2.15;1.40;;;26.80;46.90;;;;;;6370338;22;19994;-78
2022/08/10 04:08:42;;;;;;;1.92;1.20;;;26.80;47.10;;;;;;6370135;22;19998;-78
2022/08/10 04:11:11;;;;;;;1.85;1.30;;;26.70;47.00;;;;;;6369973;22;20089;-78
2022/08/10 04:13:37;;;;;;;1.95;1.15;;;26.80;46.90;;;;;;6369888;22;20408;-78
2022/08/10 04:16:04;;;;;;;1.38;1.10;;;26.70;46.80;;;;;;6369290;22;20002;-78
2022/08/10 04:18:30;;;;;;;2.75;1.40;;;26.70;46.90;;;;;;6369776;22;20013;-77
2022/08/10 04:21:07;;;;;;;1.83;1.25;;;26.70;46.50;;;;;;6368961;22;20069;-77
2022/08/10 04:23:37;;;;;;;2.33;1.35;;;26.70;46.70;;;;;;6369386;22;19998;-79
2022/08/10 04:26:03;;;;;;;4.55;1.35;;;26.60;46.60;;;;;;6369201;22;20032;-78
2022/08/10 04:28:30;;;;;;;2.72;1.20;;;26.60;46.50;;;;;;6369217;22;20051;-75
2022/08/10 04:30:57;;;;;;;3.47;1.42;;;26.60;46.40;;;;;;6341028;22;20006;-75
2022/08/10 04:33:25;;;;;;;1.70;1.17;;;26.60;46.60;;;;;;6368902;22;20081;-76
2022/08/10 04:35:52;;;;;;;1.70;1.10;;;26.60;46.40;;;;;;6368869;22;20069;-76
2022/08/10 04:38:18;;;;;;;3.15;1.20;;;26.60;46.50;;;;;;6369399;22;19999;-76
2022/08/10 04:40:45;;;;;;;2.92;1.38;;;26.50;46.60;;;;;;6368984;22;20028;-76
2022/08/10 04:43:12;;;;;;;1.70;0.90;;;26.50;46.70;;;;;;6369001;22;20001;-76
2022/08/10 04:45:42;;;;;;;2.78;0.90;;;26.50;46.90;;;;;;6368950;22;19995;-76
2022/08/10 04:48:07;;;;;;;1.40;0.93;;;26.50;46.90;;;;;;6369101;22;19999;-76
2022/08/10 04:50:33;;;;;;;1.42;1.00;;;26.50;46.70;;;;;;6368784;22;20014;-76
2022/08/10 04:52:59;;;;;;;3.70;1.10;;;26.60;47.20;;;;;;6367581;22;20008;-76
2022/08/10 04:55:24;;;;;;;2.55;1.17;;;26.50;47.70;;;;;;6367969;22;20478;-76
2022/08/10 04:57:50;;;;;;;1.83;1.10;;;26.50;46.80;;;;;;6368828;22;20006;-77
2022/08/10 05:00:16;;;;;;;3.78;1.42;;;26.50;46.90;;;;;;6368791;22;20495;-76
2022/08/10 05:02:42;;;;;;;2.65;1.40;;;26.50;47.20;;;;;;6368952;22;20050;-76
2022/08/10 05:05:08;;;;;;;1.90;1.10;;;26.40;47.50;;;;;;6368394;22;20329;-77
2022/08/10 05:07:33;;;;;;;2.72;1.40;;;26.40;47.60;;;;;;6368537;22;20081;-77
2022/08/10 05:09:59;;;;;;;2.70;1.00;;;26.40;47.70;;;;;;6368258;22;20036;-76
2022/08/10 05:12:25;;;;;;;2.75;1.30;;;26.50;47.90;;;;;;6367843;22;20005;-77
2022/08/10 05:14:51;;;;;;;2.78;1.67;;;26.50;48.20;;;;;;6366757;22;20027;-77
2022/08/10 05:17:18;;;;;;;4.32;1.40;;;26.50;48.20;;;;;;6366857;22;20089;-77
2022/08/10 05:19:43;;;;;;;1.75;1.10;;;26.50;48.40;;;;;;6368870;22;19998;-77
2022/08/10 05:22:09;;;;;;;2.08;1.40;;;26.60;48.50;;;;;;6341325;22;20010;-75
2022/08/10 05:24:35;;;;;;;8.27;1.30;;;26.60;48.90;;;;;;6368063;22;20032;-76
2022/08/10 05:27:00;;;;;;;3.17;1.50;;;26.60;49.90;;;;;;6368107;22;19998;-77
2022/08/10 05:29:26;;;;;;;3.90;1.20;;;26.60;49.90;;;;;;6368749;22;20380;-77
2022/08/10 05:31:53;;;;;;;3.58;1.55;;;26.60;49.70;;;;;;6340608;22;20336;-76
2022/08/10 05:34:20;;;;;;;3.05;1.63;;;26.60;48.50;;;;;;6368431;22;20040;-76
2022/08/10 05:36:47;;;;;;;2.97;1.55;;;26.60;48.70;;;;;;6367218;22;20009;-76
2022/08/10 05:39:26;;;;;;;2.05;1.30;;;26.60;48.60;;;;;;6368041;22;19995;-76
2022/08/10 05:41:53;;;;;;;3.58;1.38;;;26.70;48.50;;;;;;6340658;22;20013;-76
2022/08/10 05:44:22;;;;;;;1.63;1.08;;;26.70;49.10;;;;;;6340905;22;19998;-76
2022/08/10 05:46:49;;;;;;;2.28;1.52;;;26.60;48.20;;;;;;6366557;22;19998;-74
2022/08/10 05:49:15;;;;;;;3.08;1.45;;;26.50;48.60;;;;;;6368230;22;20036;-75
2022/08/10 05:51:41;;;;;;;1.98;1.35;;;26.60;48.70;;;;;;6366778;22;19999;-75
2022/08/10 05:54:13;;;;;;;1.95;1.30;;;26.60;49.10;;;;;;6368438;22;20055;-75
2022/08/10 05:56:44;;;;;;;1.98;1.10;;;26.60;48.90;;;;;;6367840;22;20002;-75
2022/08/10 05:59:12;;;;;;;1.80;0.98;;;26.60;48.70;;;;;;6367619;22;20020;-78
2022/08/10 06:01:42;;;;;;;3.55;1.38;;;26.60;48.80;;;;;;6366711;22;19994;-75
2022/08/10 06:04:10;;;;;;;2.77;1.60;;;26.70;49.00;;;;;;6367101;22;19998;-76
2022/08/10 06:06:38;;;;;;;3.38;1.10;;;26.70;49.00;;;;;;6367485;22;20216;-76
2022/08/10 06:09:06;;;;;;;4.10;1.67;;;26.70;49.00;;;;;;6367033;22;20443;-77
2022/08/10 06:11:33;;;;;;;1.70;1.10;;;26.80;48.80;;;;;;6340044;22;20089;-79
2022/08/10 06:16:44;;;;;;;1.10;1.00;;;26.90;48.40;;;;;;6366529;22;20041;-78
2022/08/10 06:19:11;;;;;;;3.47;1.25;;;26.90;48.20;;;;;;6336823;22;20097;-77
2022/08/10 06:21:37;;;;;;;5.03;1.10;;;27.00;47.70;;;;;;6366628;22;20014;-78
2022/08/10 06:24:08;;;;;;;3.90;1.60;;;27.00;47.90;;;;;;6340557;22;20002;-78
2022/08/10 06:26:33;;;;;;;2.05;1.35;;;27.00;47.80;;;;;;6342268;22;20010;-76
2022/08/10 06:29:06;;;;;;;1.85;1.13;;;27.00;47.80;;;;;;6341285;22;20006;-76
2022/08/10 06:31:38;;;;;;;2.88;1.20;;;27.10;48.00;;;;;;6364641;22;20005;-77
2022/08/10 06:34:06;;;;;;;2.25;1.42;;;27.10;48.20;;;;;;6359047;22;20006;-77
2022/08/10 06:36:34;;;;;;;3.65;1.10;;;27.10;48.50;;;;;;6340174;22;20007;-77
2022/08/10 06:38:59;;;;;;;1.95;1.05;;;27.10;48.20;;;;;;6366492;22;20001;-77
2022/08/10 06:41:29;;;;;;;1.67;0.95;;;27.20;48.00;;;;;;6339600;22;20006;-77
2022/08/10 06:44:00;;;;;;;;;;;27.30;47.80;;;;;;6341603;22;20002;-76
2022/08/10 06:46:27;;;;;;;2.08;1.05;;;27.20;47.00;;;;;;6369505;22;19944;-77
2022/08/10 06:48:58;;;;;;;4.18;1.40;;;27.30;47.70;;;;;;6341801;22;20329;-76
2022/08/10 06:51:33;;;;;;;1.73;0.98;;;27.30;47.70;;;;;;6368181;22;20066;-77
2022/08/10 06:54:03;;;;;;;1.65;1.25;;;27.30;46.50;;;;;;6368423;22;20026;-76
2022/08/10 06:56:35;;;;;;;2.78;1.20;;;27.30;47.00;;;;;;6369237;22;20289;-76
2022/08/10 06:59:46;;;;;;;2.75;0.98;;;27.30;47.00;;;;;;6368789;22;20005;-77
2022/08/10 07:02:24;;;;;;;3.38;1.02;;;27.30;46.80;;;;;;6270444;22;20004;-77
2022/08/10 07:04:52;;;;;;;2.78;0.90;;;27.30;45.90;;;;;;6362261;22;20003;-78
2022/08/10 07:07:21;;;;;;;3.25;1.13;;;27.30;46.50;;;;;;6369599;22;20048;-76
2022/08/10 07:09:48;;;;;;;1.50;0.90;;;27.30;45.70;;;;;;6369308;22;20063;-77
2022/08/10 07:12:15;;;;;;;1.95;1.00;;;27.40;46.00;;;;;;6368962;22;20297;-77
2022/08/10 07:14:43;;;;;;;3.80;1.05;;;27.50;46.20;;;;;;6368437;22;20002;-76
2022/08/10 07:17:16;;;;;;;2.60;0.93;;;27.50;46.50;;;;;;6340372;22;20085;-77
2022/08/10 07:19:45;;;;;;;2.75;1.20;;;27.60;46.50;;;;;;6368584;22;19998;-76
2022/08/10 07:22:14;;;;;;;4.97;1.30;;;27.70;45.80;;;;;;6369683;22;19998;-75
2022/08/10 07:24:42;;;;;;;3.80;1.15;;;27.70;46.00;;;;;;6369181;22;19999;-77
2022/08/10 07:27:10;;;;;;;3.85;1.00;;;27.80;46.00;;;;;;6369355;22;20010;-77
2022/08/10 07:29:38;;;;;;;1.67;0.80;;;27.70;44.80;;;;;;6368855;22;20006;-77
2022/08/10 07:32:05;;;;;;;4.75;1.50;;;27.80;45.20;;;;;;6367396;22;20006;-77
2022/08/10 07:34:34;;;;;;;2.15;0.90;;;27.80;45.40;;;;;;6369330;22;20071;-81
2022/08/10 07:37:03;;;;;;;8.93;5.40;;;27.90;45.10;;;;;;6371494;22;20297;-80
2022/08/10 07:39:34;;;;;;;10.00;8.30;;;27.90;45.00;;;;;;6371498;22;20073;-80
2022/08/10 07:42:01;;;;;;;8.07;6.45;;;28.00;44.80;;;;;;6343116;22;19998;-81
2022/08/10 07:44:29;;;;;;;2.00;1.50;;;28.10;44.50;;;;;;6342624;22;20003;-82
2022/08/10 07:46:58;;;;;;;1.83;1.20;;;28.10;44.20;;;;;;6371267;22;20010;-81
2022/08/10 07:49:29;;;;;;;1.65;0.90;;;28.20;44.50;;;;;;6343180;22;20085;-80
2022/08/10 07:51:56;;;;;;;1.58;0.80;;;28.20;44.50;;;;;;6371432;22;20007;-81
2022/08/10 07:54:27;;;;;;;1.30;1.00;;;28.30;44.40;;;;;;6370163;22;20029;-81
2022/08/10 07:56:58;;;;;;;3.25;1.00;;;28.30;44.10;;;;;;6368046;22;20026;-81
2022/08/10 07:59:39;;;;;;;2.75;0.77;;;28.30;44.30;;;;;;6370262;22;20073;-79
2022/08/10 08:02:09;;;;;;;1.05;0.80;;;28.50;44.70;;;;;;6370370;22;20592;-81
2022/08/10 08:04:35;;;;;;;3.00;1.10;;;28.50;44.40;;;;;;6369996;22;19994;-81
2022/08/10 08:07:03;;;;;;;3.85;1.10;;;28.50;44.10;;;;;;6360348;22;20025;-81
2022/08/10 08:09:30;;;;;;;1.02;0.70;;;28.60;44.30;;;;;;6367769;22;20006;-81
2022/08/10 08:11:57;;;;;;;2.15;1.20;;;28.70;44.30;;;;;;6339550;22;20055;-81
2022/08/10 08:14:24;;;;;;;5.50;1.10;;;28.80;44.50;;;;;;6342239;22;20014;-81
2022/08/10 08:16:56;;;;;;;4.13;1.13;;;28.90;44.50;;;;;;6369928;22;20400;-80
2022/08/10 08:19:24;;;;;;;1.63;0.88;;;28.90;45.00;;;;;;6341407;22;20067;-77
2022/08/10 08:21:51;;;;;;;5.75;1.17;;;29.00;44.90;;;;;;6342091;22;19998;-76
2022/08/10 08:24:19;;;;;;;2.33;0.90;;;29.10;44.90;;;;;;6369959;22;20065;-77
2022/08/10 08:26:47;;;;;;;2.67;1.30;;;29.10;44.70;;;;;;6341909;22;20030;-77
2022/08/10 08:29:14;;;;;;;1.20;0.85;;;29.20;43.70;;;;;;6341557;22;20014;-77
2022/08/10 08:31:42;;;;;;;3.97;0.98;;;29.30;43.70;;;;;;6369846;22;19998;-76
2022/08/10 08:34:11;;;;;;;0.77;0.70;;;29.30;43.40;;;;;;6341217;22;20094;-81
2022/08/10 08:36:39;;;;;;;2.03;1.00;;;29.40;43.50;;;;;;6368935;22;20034;-81
2022/08/10 08:39:05;;;;;;;2.47;0.90;;;29.50;43.80;;;;;;6360986;22;20073;-82
2022/08/10 08:41:46;;;;;;;1.58;1.00;;;29.50;43.70;;;;;;6368794;22;19994;-81
2022/08/10 08:44:37;;;;;;;2.88;1.00;;;29.70;43.40;;;;;;6340339;22;20002;-81
2022/08/10 08:47:06;;;;;;;7.00;1.27;;;29.70;43.00;;;;;;6369683;22;20002;-81
2022/08/10 08:50:06;;;;;;;1.90;1.00;;;29.70;42.70;;;;;;6339177;22;20067;-81
2022/08/10 08:52:35;;;;;;;;;;;29.80;41.70;;;;;;6369642;22;19990;-81
2022/08/10 08:55:10;;;;;;;0.90;0.63;;;29.90;42.10;;;;;;6369831;22;19980;-81
2022/08/10 08:58:14;;;;;;;0.80;0.80;;;29.90;42.10;;;;;;6341958;22;20431;-79
2022/08/10 09:00:49;;;;;;;2.22;0.77;;;30.00;41.40;;;;;;6320704;22;20026;-76
2022/08/10 09:03:41;;;;;;;1.60;0.88;;;30.00;41.40;;;;;;6341210;22;20006;-80
2022/08/10 09:06:07;;;;;;;1.05;0.80;;;30.10;41.30;;;;;;6341429;22;20006;-79
2022/08/10 09:09:03;;;;;;;3.00;0.75;;;30.10;40.90;;;;;;6369540;22;20097;-80
2022/08/10 09:11:47;;;;;;;4.60;0.90;;;30.20;41.10;;;;;;6369933;22;20005;-79
2022/08/10 09:14:31;;;;;;;2.40;1.10;;;30.20;40.50;;;;;;6369560;22;20022;-79
2022/08/10 09:17:16;;;;;;;1.40;0.88;;;30.30;40.20;;;;;;6366152;22;20029;-80
2022/08/10 09:19:57;;;;;;;1.30;0.98;;;30.40;40.40;;;;;;6342433;22;20022;-77
2022/08/10 09:22:55;;;;;;;4.05;1.13;;;30.40;40.50;;;;;;6370467;22;20005;-77
2022/08/10 09:25:25;;;;;;;3.08;0.90;;;30.50;39.50;;;;;;6369092;22;20005;-77
2022/08/10 09:28:02;;;;;;;;;;;30.60;40.30;;;;;;6369380;22;20041;-77
2022/08/10 09:30:34;;;;;;;3.13;0.88;;;30.70;38.50;;;;;;6342296;22;19921;-77
2022/08/10 09:33:18;;;;;;;3.40;0.90;;;30.60;37.50;;;;;;6366680;22;20026;-76
2022/08/10 09:35:52;;;;;;;4.68;0.80;;;30.70;38.30;;;;;;6370059;22;20024;-75
2022/08/10 09:38:23;;;;;;;1.60;0.73;;;30.80;39.00;;;;;;6367255;22;20408;-75
2022/08/10 09:41:20;;;;;;;1.05;0.75;;;30.90;38.80;;;;;;6369322;22;20038;-76
2022/08/10 09:43:59;;;;;;;1.65;1.05;;;31.00;39.10;;;;;;6340881;22;20025;-76
2022/08/10 09:46:51;;;;;;;1.50;0.70;;;31.10;38.90;;;;;;6369903;22;20086;-75
2022/08/10 09:49:42;;;;;;;2.00;1.10;;;31.30;38.80;;;;;;6369321;22;19999;-75
2022/08/10 09:52:30;;;;;;;2.35;1.00;;;31.40;38.00;;;;;;6369821;22;20073;-76
2022/08/10 09:54:59;;;;;;;3.03;0.90;;;31.40;37.60;;;;;;6369157;22;19994;-76
2022/08/10 09:57:27;;;;;;;0.80;0.60;;;31.50;38.10;;;;;;6340860;22;20006;-76
2022/08/10 10:00:11;;;;;;;3.83;0.90;;;31.60;38.10;;;;;;6341422;22;20409;-76
2022/08/10 10:03:05;;;;;;;7.15;0.93;;;31.70;37.10;;;;;;6369156;22;20103;-76
2022/08/10 10:05:55;;;;;;;3.38;0.90;;;31.90;36.50;;;;;;6369908;22;20067;-76
2022/08/10 10:08:33;;;;;;;8.45;0.93;;;32.00;37.50;;;;;;6369378;22;20333;-76
2022/08/10 10:11:21;;;;;;;1.77;0.82;;;32.10;37.70;;;;;;6369586;22;20006;-76
2022/08/10 10:13:57;;;;;;;1.50;0.80;;;32.20;36.70;;;;;;6369449;22;20027;-76
2022/08/10 10:16:31;;;;;;;6.90;1.08;;;32.30;36.80;;;;;;6369534;22;19999;-77
2022/08/10 10:19:03;;;;;;;1.92;0.80;;;32.30;37.00;;;;;;6369314;22;20041;-76
2022/08/10 10:21:48;;;;;;;0.75;0.70;;;32.40;37.30;;;;;;6370275;22;20429;-76
2022/08/10 10:24:41;;;;;;;1.63;0.80;;;32.50;37.70;;;;;;6370055;22;20069;-76
2022/08/10 10:27:18;;;;;;;1.08;0.80;;;32.70;37.70;;;;;;6369954;22;20006;-76
2022/08/10 10:30:07;;;;;;;1.30;0.93;;;32.80;36.50;;;;;;6368583;22;20463;-80
2022/08/10 10:33:09;;;;;;;1.95;0.60;;;32.90;36.80;;;;;;6368669;22;20006;-81
2022/08/10 10:35:51;;;;;;;1.10;0.75;;;33.10;36.70;;;;;;6341235;22;20350;-81
2022/08/10 10:38:21;;;;;;;2.22;0.95;;;33.30;36.50;;;;;;6369612;22;20002;-76
2022/08/10 10:41:00;;;;;;;5.03;1.33;;;33.40;37.10;;;;;;6369353;22;20424;-76
2022/08/10 10:43:40;;;;;;;2.20;1.00;;;33.60;35.50;;;;;;6368384;22;20002;-76
2022/08/10 10:46:22;;;;;;;1.08;0.70;;;33.70;36.30;;;;;;6369607;22;20313;-76
2022/08/10 10:49:15;;;;;;;3.33;0.90;;;33.90;36.20;;;;;;6368726;22;20002;-76
2022/08/10 10:51:50;;;;;;;1.38;0.60;;;34.00;35.90;;;;;;6370508;22;19994;-80
2022/08/10 10:54:46;;;;;;;35.75;32.00;;;34.10;35.90;;;;;;6369618;22;20005;-81
2022/08/10 10:57:27;;;;;;;13.20;10.88;;;34.10;34.20;;;;;;6303768;22;20010;-78
2022/08/10 11:00:03;;;;;;;4.53;2.65;;;34.10;36.00;;;;;;6369658;22;19994;-79
2022/08/10 11:02:43;;;;;;;4.00;1.83;;;34.20;36.00;;;;;;6369942;22;19998;-80
2022/08/10 11:05:34;;;;;;;4.05;1.60;;;34.30;36.20;;;;;;6369778;22;19998;-79
2022/08/10 11:08:09;;;;;;;2.28;0.95;;;34.60;36.10;;;;;;6341182;22;20628;-80
2022/08/10 11:10:41;;;;;;;3.05;1.00;;;34.70;35.80;;;;;;6371659;22;19998;-79
2022/08/10 11:13:39;;;;;;;1.35;1.02;;;34.90;35.80;;;;;;6373042;22;20009;-79
2022/08/10 11:16:29;;;;;;;1.65;1.00;;;35.00;35.10;;;;;;6373104;22;20009;-79
2022/08/10 11:19:06;;;;;;;1.25;0.77;;;35.20;35.00;;;;;;6371366;22;20089;-79
2022/08/10 11:21:55;;;;;;;4.55;1.10;;;35.30;34.80;;;;;;6371490;22;20010;-79
2022/08/10 11:24:36;;;;;;;1.60;0.80;;;35.60;34.80;;;;;;6344371;22;19994;-80
2022/08/10 11:27:20;;;;;;;3.75;1.10;;;35.70;34.10;;;;;;6371770;22;19998;-80
2022/08/10 11:30:05;;;;;;;0.77;0.70;;;35.80;33.90;;;;;;6372061;22;20010;-80
2022/08/10 11:32:49;;;;;;;6.45;0.90;;;35.90;34.10;;;;;;6368894;22;20009;-81
2022/08/10 11:35:27;;;;;;;4.45;0.70;;;36.00;33.30;;;;;;6341584;22;20006;-80
2022/08/10 11:38:13;;;;;;;3.63;1.00;;;36.20;33.60;;;;;;6370447;22;20002;-81
2022/08/10 11:40:54;;;;;;;2.60;0.82;;;36.10;32.40;;;;;;6370116;22;20048;-80
2022/08/10 11:43:27;;;;;;;4.65;1.30;;;36.30;33.10;;;;;;6342241;22;20479;-78
2022/08/10 11:46:39;;;;;;;5.32;1.13;;;36.60;33.10;;;;;;6367005;22;20716;-77
2022/08/10 11:49:13;;;;;;;3.33;0.93;;;36.90;32.80;;;;;;6320812;22;20009;-76
2022/08/10 11:51:52;;;;;;;1.90;1.02;;;37.30;32.40;;;;;;6370278;22;20324;-75
2022/08/10 11:54:27;;;;;;;4.07;1.10;;;37.50;31.50;;;;;;6341778;22;20002;-76
2022/08/10 11:56:56;;;;;;;1.58;0.82;;;37.80;31.30;;;;;;6340865;22;20247;-75
2022/08/10 12:02:14;;;;;;;4.60;1.08;;;38.10;30.50;;;;;;6369844;22;20009;-76
2022/08/10 12:04:47;;;;;;;2.75;1.13;;;38.40;30.70;;;;;;6369694;22;20002;-76
2022/08/10 12:07:15;;;;;;;4.97;1.38;;;38.60;29.60;;;;;;6369541;22;20009;-76
2022/08/10 12:09:42;;;;;;;1.13;0.68;;;38.60;29.90;;;;;;6341327;22;20006;-77
2022/08/10 12:12:09;;;;;;;2.80;0.75;;;38.80;30.30;;;;;;6341696;22;20010;-77
2022/08/10 12:14:47;;;;;;;1.20;0.80;;;38.90;30.00;;;;;;6368740;22;20491;-76
2022/08/10 12:17:25;;;;;;;1.50;0.67;;;39.10;29.00;;;;;;6340352;22;20033;-77
2022/08/10 12:19:55;;;;;;;2.10;0.90;;;39.20;30.00;;;;;;6368145;22;20235;-77
2022/08/10 12:22:28;;;;;;;1.85;0.80;;;39.20;30.00;;;;;;6340736;22;20002;-77
2022/08/10 12:25:01;;;;;;;2.72;0.80;;;39.30;30.00;;;;;;6341392;22;20002;-76
2022/08/10 12:27:49;;;;;;;3.08;0.88;;;39.30;30.00;;;;;;6369341;22;20053;-76
2022/08/10 12:30:18;;;;;;;5.35;1.30;;;39.40;29.40;;;;;;6368034;22;20105;-77
2022/08/10 12:32:53;;;;;;;;;;;39.30;29.70;;;;;;6368782;22;20029;-77
2022/08/10 12:35:44;;;;;;;1.17;0.75;;;39.20;29.10;;;;;;6368845;22;20381;-76
2022/08/10 12:38:48;;;;;;;0.98;0.70;;;39.20;30.00;;;;;;6369466;22;20010;-77
2022/08/10 12:41:22;;;;;;;5.05;0.80;;;39.30;30.30;;;;;;6272425;22;20008;-77
2022/08/10 12:43:55;;;;;;;1.13;0.90;;;39.40;30.00;;;;;;6272588;22;20053;-76
2022/08/10 12:47:02;;;;;;;0.95;0.60;;;39.60;30.50;;;;;;6328675;22;20298;-76
2022/08/10 12:49:36;;;;;;;3.03;0.93;;;39.70;29.70;;;;;;6271620;22;20003;-77
2022/08/10 12:52:15;;;;;;;5.53;1.20;;;39.70;30.10;;;;;;6272911;22;20382;-76
2022/08/10 12:54:43;;;;;;;1.05;0.75;;;39.70;28.60;;;;;;6334369;22;20305;-76
2022/08/10 12:57:17;;;;;;;2.42;0.55;;;39.60;29.50;;;;;;6369105;22;20008;-77
2022/08/10 12:59:57;;;;;;;0.70;0.50;;;39.50;29.70;;;;;;6368511;22;20081;-77
2022/08/10 13:02:33;;;;;;;3.13;0.80;;;39.50;29.20;;;;;;6369113;22;20063;-76
2022/08/10 13:05:03;;;;;;;1.50;0.63;;;39.40;29.00;;;;;;6369216;22;20044;-76
2022/08/10 13:07:35;;;;;;;5.70;0.80;;;39.50;29.90;;;;;;6369641;22;20389;-77
2022/08/10 13:10:09;;;;;;;1.92;0.70;;;39.50;29.60;;;;;;6368555;22;20051;-77
2022/08/10 13:12:38;;;;;;;2.25;0.60;;;39.50;29.70;;;;;;6369197;22;20305;-76
2022/08/10 13:15:08;;;;;;;;;;;39.50;29.70;;;;;;6369380;22;20022;-76
2022/08/10 13:17:36;;;;;;;0.60;0.60;;;39.40;29.50;;;;;;6369402;22;19910;-76
2022/08/10 13:20:11;;;;;;;1.45;0.70;;;39.40;29.70;;;;;;6367923;22;20456;-76
2022/08/10 13:22:38;;;;;;;3.03;0.80;;;39.30;29.90;;;;;;6368366;22;20006;-81
2022/08/10 13:25:07;;;;;;;4.47;1.02;;;39.40;30.50;;;;;;6341416;22;20005;-81